VTUW

Details ICAO VTUW (KOP)
Name Nakhon Phanom
Region Thailand
Timezone Asia/Bangkok (UTC+7.0)
Plans Departing 11
Arriving 15
Stats Elevation 587 ft / 179 m (AMSL)
Location 17.383795° 104.643022°
Runways 1
Magnetic Variation 1.011° W
Sunrise 2018-05-23 22:28:44 UTC / 2018-05-24 05:28:44 Local
Sunset 2018-05-24 11:30:36 UTC / 2018-05-24 18:30:36 Local
Advertisement - Login to hide

Runways

ID Width Length Bearing (true) Bearing (mag) Surface Threshold Offset Overrun Length
15 148 ft / 45 m 8,241 ft / 2,512 m 144.98° 145.99° Asphalt 0 ft / 0 m 197 ft / 60 m
33 148 ft / 45 m 8,241 ft / 2,512 m 324.99° 326.00° Asphalt 0 ft / 0 m 197 ft / 60 m

Approach Navaids

Runway Type Ident Frequency Range Bearing (true) Bearing (mag) Slope Elevation
15 Localiser INKP 109.70 MHz 18 nm / 33 km 144.99° 146.00° - 553 ft / 169 m (AMSL)
15 Glidescope INKP 109.70 MHz 10 nm / 19 km 144.98° 145.99° 3.00° 587 ft / 179 m (AMSL)
15 DME INKP 109.70 MHz 18 nm / 33 km - - - 553 ft / 169 m (AMSL)

Map

Weather


0- 5 10 15 20 25 30 35+ Temperature / ° C

Clouds and Precipitation
Forecast for 2018-05-24 06:00 UTC. Updated 2 hours ago

Ground ~20,000 ft ~40,000 ft Winds

METAR

VTUW 240700Z VRB04KT 9999 SCT025 32/23 Q1007 NOSIG

TAF

TAF VTUW 240500Z 2406/2506 14005KT 9999 SCT020 TEMPO 2407/2414 5000 TSRA FEW015CB

Frequencies

Tower 122.50 MHz TWR
Approach 123.35 MHz SAKHON NAKHON APP
Warning: Do not use this data for real-world aviation or navigation. No guarantee of current accuracy is given.